createdAt,value
2019-03-29T00:00:30.318Z,9.46
2019-03-29T00:03:35.216Z,9.56
2019-03-29T00:06:39.762Z,9.62
2019-03-29T00:09:44.792Z,9.69
2019-03-29T00:12:49.233Z,9.68
2019-03-29T00:15:53.873Z,9.68
2019-03-29T00:18:58.969Z,9.67
2019-03-29T00:22:04.945Z,9.65
2019-03-29T00:25:10.287Z,9.60
2019-03-29T00:28:14.702Z,9.62
2019-03-29T00:31:19.120Z,9.58
2019-03-29T00:34:23.921Z,9.57
2019-03-29T00:37:28.761Z,9.58
2019-03-29T00:40:34.777Z,9.59
2019-03-29T00:43:39.520Z,9.58
2019-03-29T00:46:44.085Z,9.57
2019-03-29T00:49:49.185Z,9.56
2019-03-29T00:52:53.607Z,9.53
2019-03-29T00:55:58.150Z,9.55
2019-03-29T00:59:02.551Z,9.56
2019-03-29T01:02:07.058Z,9.56
2019-03-29T01:05:11.817Z,9.50
2019-03-29T01:08:16.576Z,9.41
2019-03-29T01:11:20.987Z,9.31
2019-03-29T01:14:25.448Z,9.14
2019-03-29T01:17:30.638Z,9.06
2019-03-29T01:20:35.034Z,8.98
2019-03-29T01:23:39.467Z,9.02
2019-03-29T01:26:43.943Z,9.12
2019-03-29T01:29:48.651Z,9.21
2019-03-29T01:32:53.467Z,9.27
2019-03-29T01:35:58.546Z,9.21
2019-03-29T01:39:04.187Z,9.19
2019-03-29T01:42:08.661Z,9.21
2019-03-29T01:45:13.881Z,9.19
2019-03-29T01:48:18.339Z,9.23
2019-03-29T01:51:23.385Z,9.26
2019-03-29T01:54:27.951Z,9.27
2019-03-29T01:57:32.974Z,9.22
2019-03-29T02:00:37.645Z,9.13
2019-03-29T02:03:42.178Z,9.01
2019-03-29T02:06:46.660Z,8.92
2019-03-29T02:09:52.205Z,8.83
2019-03-29T02:12:56.707Z,8.80
2019-03-29T02:16:01.952Z,8.71
2019-03-29T02:19:06.549Z,8.61
2019-03-29T02:22:11.519Z,8.50
2019-03-29T02:25:16.419Z,8.44
2019-03-29T02:28:21.378Z,8.51
2019-03-29T02:31:26.464Z,8.60
2019-03-29T02:34:31.919Z,8.61
2019-03-29T02:37:36.411Z,8.53
2019-03-29T02:40:41.215Z,8.49
2019-03-29T02:43:45.689Z,8.57
2019-03-29T02:46:50.690Z,8.62
2019-03-29T02:49:57.616Z,8.69
2019-03-29T02:53:02.046Z,8.74
2019-03-29T02:56:06.842Z,8.77
2019-03-29T02:59:11.670Z,8.76
2019-03-29T03:02:16.231Z,8.62
2019-03-29T03:05:20.754Z,8.59
2019-03-29T03:08:25.466Z,8.50
2019-03-29T03:11:30.272Z,8.26
2019-03-29T03:14:34.744Z,8.34
2019-03-29T03:17:39.330Z,8.50
2019-03-29T03:20:44.160Z,8.47
2019-03-29T03:23:48.632Z,8.49
2019-03-29T03:26:53.170Z,8.43
2019-03-29T03:29:58.333Z,8.44
2019-03-29T03:33:03.035Z,8.46
2019-03-29T03:36:07.272Z,8.28
2019-03-29T03:39:30.193Z,8.23
2019-03-29T03:42:18.205Z,8.24
2019-03-29T03:45:22.848Z,8.24
2019-03-29T03:48:28.223Z,8.26
2019-03-29T03:51:33.513Z,8.11
2019-03-29T03:54:38.570Z,8.06
2019-03-29T03:57:43.690Z,8.06
2019-03-29T04:00:56.682Z,8.02
2019-03-29T04:04:01.312Z,7.98
2019-03-29T04:07:05.733Z,7.84
2019-03-29T04:10:10.233Z,7.61
2019-03-29T04:13:15.090Z,7.44
2019-03-29T04:16:19.427Z,7.44
2019-03-29T04:19:24.016Z,7.48
2019-03-29T04:22:28.741Z,7.40
2019-03-29T04:25:33.274Z,7.32
2019-03-29T04:28:38.079Z,7.27
2019-03-29T04:31:42.573Z,7.22
2019-03-29T04:34:47.032Z,7.16
2019-03-29T04:37:52.122Z,7.01
2019-03-29T04:40:56.886Z,6.88
2019-03-29T04:44:01.801Z,6.81
2019-03-29T04:47:06.546Z,6.77
2019-03-29T04:50:13.290Z,6.85
2019-03-29T04:53:18.059Z,6.81
2019-03-29T04:56:22.977Z,6.74
2019-03-29T04:59:27.549Z,6.63
2019-03-29T05:02:32.332Z,6.53
2019-03-29T05:05:36.879Z,6.53
2019-03-29T05:08:41.430Z,6.62
2019-03-29T05:11:45.880Z,6.70
2019-03-29T05:14:50.836Z,6.75
2019-03-29T05:17:55.601Z,6.71
2019-03-29T05:21:00.745Z,6.65
2019-03-29T05:24:05.236Z,6.74
2019-03-29T05:27:10.234Z,6.77
2019-03-29T05:30:15.165Z,6.78
2019-03-29T05:33:19.622Z,6.77
2019-03-29T05:36:23.989Z,6.81
2019-03-29T05:39:28.519Z,6.87
2019-03-29T05:42:33.069Z,6.98
2019-03-29T05:45:38.273Z,7.10
2019-03-29T05:48:43.080Z,7.03
2019-03-29T05:51:48.228Z,7.00
2019-03-29T05:54:52.658Z,7.02
2019-03-29T05:57:57.383Z,7.14
2019-03-29T06:01:02.365Z,7.20
2019-03-29T06:04:07.247Z,7.28
2019-03-29T06:07:11.724Z,7.37
2019-03-29T06:10:16.512Z,7.50
2019-03-29T06:13:21.581Z,7.72
2019-03-29T06:16:38.378Z,8.03
2019-03-29T06:19:33.321Z,8.30
2019-03-29T06:22:38.641Z,8.62
2019-03-29T06:25:43.106Z,8.77
2019-03-29T06:28:48.251Z,8.97
2019-03-29T06:31:52.788Z,9.10
2019-03-29T06:34:57.400Z,9.23
2019-03-29T06:38:03.411Z,9.34
2019-03-29T06:41:08.247Z,9.51
2019-03-29T06:44:12.848Z,9.66
2019-03-29T06:47:19.274Z,9.75
2019-03-29T06:50:23.762Z,9.87
2019-03-29T06:53:28.708Z,9.95
2019-03-29T06:56:33.705Z,10.00
2019-03-29T06:59:38.703Z,10.05
2019-03-29T07:02:43.344Z,10.21
2019-03-29T07:05:47.976Z,10.15
2019-03-29T07:08:52.455Z,10.30
2019-03-29T07:11:57.741Z,10.38
2019-03-29T07:15:02.392Z,10.39
2019-03-29T07:18:06.931Z,10.50
2019-03-29T07:21:21.332Z,10.63
2019-03-29T07:24:17.724Z,10.71
2019-03-29T07:27:22.652Z,10.83
2019-03-29T07:30:27.168Z,10.95
2019-03-29T07:33:32.265Z,11.04
2019-03-29T07:36:37.089Z,11.15
2019-03-29T07:39:41.539Z,11.21
2019-03-29T07:42:45.926Z,11.45
2019-03-29T07:45:50.674Z,11.58
2019-03-29T07:48:55.102Z,11.59
2019-03-29T07:52:00.555Z,11.71
2019-03-29T07:55:05.738Z,11.88
2019-03-29T07:58:10.410Z,11.86
2019-03-29T08:01:14.894Z,12.14
2019-03-29T08:04:21.599Z,12.27
2019-03-29T08:07:27.445Z,12.42
2019-03-29T08:10:32.800Z,12.57
2019-03-29T08:13:37.305Z,12.50
2019-03-29T08:16:42.130Z,12.54
2019-03-29T08:19:46.682Z,12.79
2019-03-29T08:22:51.517Z,12.89
2019-03-29T08:25:56.451Z,12.96
2019-03-29T08:29:01.270Z,12.95
2019-03-29T08:32:05.862Z,13.04
2019-03-29T08:35:11.875Z,13.16
2019-03-29T08:38:16.311Z,13.54
2019-03-29T08:41:20.808Z,13.39
2019-03-29T08:44:25.571Z,13.44
2019-03-29T08:47:30.011Z,13.62
2019-03-29T08:50:34.380Z,13.69
2019-03-29T08:53:39.030Z,13.80
2019-03-29T08:56:43.538Z,13.79
2019-03-29T08:59:48.499Z,14.01
2019-03-29T09:02:53.389Z,14.05
2019-03-29T09:05:59.763Z,14.20
2019-03-29T09:09:06.383Z,14.34
2019-03-29T09:12:14.641Z,14.24
2019-03-29T09:15:17.880Z,14.35
2019-03-29T09:18:25.755Z,14.46
2019-03-29T09:21:29.058Z,14.71
2019-03-29T09:24:34.080Z,14.73
2019-03-29T09:27:38.805Z,14.94
2019-03-29T09:30:43.934Z,14.74
2019-03-29T09:33:48.839Z,14.82
2019-03-29T09:36:53.311Z,14.65
2019-03-29T09:39:57.850Z,14.67
2019-03-29T09:43:09.615Z,14.58
2019-03-29T09:46:08.685Z,14.69
2019-03-29T09:49:13.234Z,14.66
2019-03-29T09:52:17.781Z,14.56
2019-03-29T09:55:22.476Z,14.88
2019-03-29T09:58:26.977Z,15.30
2019-03-29T10:01:31.623Z,15.58
2019-03-29T10:04:36.602Z,16.20
2019-03-29T10:07:41.138Z,16.20
2019-03-29T10:10:45.819Z,16.40
2019-03-29T10:13:50.261Z,16.68
2019-03-29T10:16:55.079Z,16.65
2019-03-29T10:19:59.554Z,16.48
2019-03-29T10:23:04.178Z,16.47
2019-03-29T10:26:08.654Z,16.51
2019-03-29T10:29:13.171Z,16.75
2019-03-29T10:32:17.878Z,16.75
2019-03-29T10:35:23.663Z,16.75
2019-03-29T10:38:28.326Z,17.06
2019-03-29T10:41:34.547Z,17.20
2019-03-29T10:44:39.714Z,17.26
2019-03-29T10:47:45.035Z,17.43
2019-03-29T10:50:49.457Z,17.07
2019-03-29T10:53:54.106Z,17.26
2019-03-29T10:56:59.010Z,17.37
2019-03-29T11:00:04.044Z,17.38
2019-03-29T11:03:08.774Z,17.43
2019-03-29T11:06:13.230Z,16.95
2019-03-29T11:09:18.066Z,17.16
2019-03-29T11:12:22.638Z,17.03
2019-03-29T11:15:27.038Z,17.08
2019-03-29T11:18:31.481Z,17.23
2019-03-29T11:21:35.981Z,17.34
2019-03-29T11:24:40.349Z,17.40
2019-03-29T11:27:44.986Z,17.18
2019-03-29T11:30:49.533Z,17.35
2019-03-29T11:33:53.931Z,17.67
2019-03-29T11:36:58.448Z,17.70
2019-03-29T11:40:03.022Z,18.01
2019-03-29T11:43:07.609Z,18.32
2019-03-29T11:46:12.136Z,18.08
2019-03-29T11:49:17.001Z,17.73
2019-03-29T11:52:21.335Z,17.81
2019-03-29T11:55:25.723Z,17.56
2019-03-29T11:58:30.202Z,17.20
2019-03-29T12:01:34.714Z,17.22
2019-03-29T12:04:39.180Z,17.69
2019-03-29T12:07:43.616Z,18.24
2019-03-29T12:10:48.071Z,18.57
2019-03-29T12:13:52.669Z,18.91
2019-03-29T12:16:57.639Z,18.97
2019-03-29T12:20:02.299Z,18.99
2019-03-29T12:23:06.699Z,19.08
2019-03-29T12:26:11.455Z,19.37
2019-03-29T12:29:15.946Z,19.36
2019-03-29T12:32:20.409Z,19.31
2019-03-29T12:35:24.833Z,19.50
2019-03-29T12:38:29.169Z,19.61
2019-03-29T12:41:33.525Z,19.52
2019-03-29T12:44:38.306Z,19.12
2019-03-29T12:47:42.708Z,19.33
2019-03-29T12:50:47.122Z,19.30
2019-03-29T12:53:51.600Z,19.57
2019-03-29T12:56:56.097Z,19.68
2019-03-29T13:00:00.841Z,19.74
2019-03-29T13:03:05.428Z,20.33
2019-03-29T13:06:09.922Z,20.50
2019-03-29T13:09:14.350Z,20.41
2019-03-29T13:12:19.113Z,20.75
2019-03-29T13:15:23.714Z,20.71
2019-03-29T13:18:28.332Z,20.78
2019-03-29T13:21:32.704Z,20.94
2019-03-29T13:24:37.122Z,20.92
2019-03-29T13:27:41.834Z,21.02
2019-03-29T13:30:46.888Z,20.89
2019-03-29T13:33:51.421Z,20.94
2019-03-29T13:36:55.801Z,21.11
2019-03-29T13:40:00.402Z,21.17
2019-03-29T13:43:05.077Z,21.06
2019-03-29T13:46:09.588Z,21.01
2019-03-29T13:49:13.967Z,20.80
2019-03-29T13:52:18.271Z,20.96
2019-03-29T13:55:22.839Z,21.21
2019-03-29T13:58:27.163Z,21.21
2019-03-29T14:01:31.726Z,21.31
2019-03-29T14:04:36.216Z,21.34
2019-03-29T14:07:40.497Z,21.37
2019-03-29T14:10:44.977Z,21.43
2019-03-29T14:13:49.301Z,21.49
2019-03-29T14:16:53.636Z,21.09
2019-03-29T14:19:57.920Z,21.39
2019-03-29T14:23:03.104Z,21.68
2019-03-29T14:26:07.533Z,21.67
2019-03-29T14:29:11.919Z,21.93
2019-03-29T14:32:16.303Z,21.89
2019-03-29T14:35:20.630Z,21.66
2019-03-29T14:38:25.100Z,21.77
2019-03-29T14:41:29.718Z,21.92
2019-03-29T14:44:34.208Z,21.83
2019-03-29T14:47:43.024Z,22.14
2019-03-29T14:50:44.789Z,22.53
2019-03-29T14:53:50.262Z,22.37
2019-03-29T14:56:55.199Z,22.74
2019-03-29T14:59:59.704Z,22.43
2019-03-29T15:03:04.167Z,22.58
2019-03-29T15:06:08.629Z,22.47
2019-03-29T15:09:13.298Z,22.47
2019-03-29T15:12:17.718Z,22.20
2019-03-29T15:15:22.225Z,22.22
2019-03-29T15:18:26.771Z,22.21
2019-03-29T15:21:31.454Z,22.47
2019-03-29T15:24:36.368Z,22.34
2019-03-29T15:27:41.480Z,22.05
2019-03-29T15:30:45.907Z,22.57
2019-03-29T15:33:50.295Z,22.14
2019-03-29T15:36:54.907Z,22.15
2019-03-29T15:39:59.364Z,22.34
2019-03-29T15:43:03.718Z,22.05
2019-03-29T15:46:08.141Z,22.33
2019-03-29T15:49:12.698Z,22.17
2019-03-29T15:52:17.000Z,22.29
2019-03-29T15:55:21.526Z,22.12
2019-03-29T15:58:26.450Z,22.05
2019-03-29T16:01:30.898Z,21.91
2019-03-29T16:04:35.440Z,21.82
2019-03-29T16:07:39.943Z,21.93
2019-03-29T16:10:44.830Z,21.82
2019-03-29T16:13:49.534Z,21.48
2019-03-29T16:16:53.855Z,21.17
2019-03-29T16:19:58.477Z,21.23
2019-03-29T16:23:02.810Z,21.22
2019-03-29T16:26:07.115Z,21.07
2019-03-29T16:29:11.842Z,21.01
2019-03-29T16:32:16.238Z,20.85
2019-03-29T16:35:20.622Z,20.60
2019-03-29T16:38:25.501Z,20.35
2019-03-29T16:41:29.946Z,19.97
2019-03-29T16:44:34.583Z,19.94
2019-03-29T16:47:39.007Z,19.79
2019-03-29T16:50:43.317Z,19.63
2019-03-29T16:53:47.637Z,19.45
2019-03-29T16:56:51.931Z,19.39
2019-03-29T16:59:56.239Z,19.25
2019-03-29T17:03:00.610Z,19.23
2019-03-29T17:06:05.302Z,19.23
2019-03-29T17:09:09.856Z,19.12
2019-03-29T17:12:14.244Z,19.03
2019-03-29T17:15:19.916Z,18.88
2019-03-29T17:18:29.570Z,18.81
2019-03-29T17:21:30.683Z,18.64
2019-03-29T17:24:35.068Z,18.52
2019-03-29T17:27:39.547Z,18.42
2019-03-29T17:30:48.407Z,18.30
2019-03-29T17:33:52.989Z,18.14
2019-03-29T17:36:57.637Z,18.11
2019-03-29T17:40:02.171Z,18.10
2019-03-29T17:43:06.565Z,17.96
2019-03-29T17:46:16.548Z,17.92
2019-03-29T17:49:17.331Z,17.84
2019-03-29T17:52:22.075Z,17.84
2019-03-29T17:55:26.455Z,17.79
2019-03-29T17:58:31.228Z,17.68
2019-03-29T18:01:39.181Z,17.61
2019-03-29T18:04:42.214Z,17.52
2019-03-29T18:07:47.242Z,17.48
2019-03-29T18:10:52.227Z,17.42
2019-03-29T18:13:56.631Z,17.35
2019-03-29T18:17:00.982Z,17.28
2019-03-29T18:20:05.898Z,17.17
2019-03-29T18:23:10.301Z,17.00
2019-03-29T18:26:14.795Z,16.72
2019-03-29T18:29:19.246Z,16.54
2019-03-29T18:32:23.876Z,16.43
2019-03-29T18:35:28.684Z,16.30
2019-03-29T18:38:34.957Z,16.22
2019-03-29T18:41:39.261Z,16.12
2019-03-29T18:44:43.978Z,16.07
2019-03-29T18:47:48.671Z,15.93
2019-03-29T18:50:53.038Z,15.83
2019-03-29T18:53:57.393Z,15.68
2019-03-29T18:57:02.043Z,15.57
2019-03-29T19:00:08.141Z,15.53
2019-03-29T19:03:12.642Z,15.38
2019-03-29T19:06:17.394Z,15.11
2019-03-29T19:09:22.508Z,14.92
2019-03-29T19:12:27.020Z,14.78
2019-03-29T19:15:31.896Z,14.63
2019-03-29T19:18:36.336Z,14.51
2019-03-29T19:21:41.024Z,14.30
2019-03-29T19:24:45.428Z,14.37
2019-03-29T19:27:49.889Z,14.37
2019-03-29T19:30:54.886Z,14.31
2019-03-29T19:33:59.598Z,14.31
2019-03-29T19:37:04.077Z,14.26
2019-03-29T19:40:08.829Z,14.12
2019-03-29T19:43:13.386Z,13.99
2019-03-29T19:46:18.251Z,13.85
2019-03-29T19:49:24.453Z,13.72
2019-03-29T19:52:29.035Z,13.60
2019-03-29T19:55:33.598Z,13.50
2019-03-29T19:58:38.128Z,13.44
2019-03-29T20:01:42.583Z,13.42
2019-03-29T20:04:48.688Z,13.37
2019-03-29T20:07:53.560Z,13.22
2019-03-29T20:10:58.060Z,13.13
2019-03-29T20:14:02.848Z,13.11
2019-03-29T20:17:07.420Z,13.07
2019-03-29T20:20:16.067Z,13.00
2019-03-29T20:23:20.525Z,12.99
2019-03-29T20:26:25.041Z,12.98
2019-03-29T20:29:30.092Z,12.89
2019-03-29T20:32:34.858Z,12.82
2019-03-29T20:35:39.343Z,12.78
2019-03-29T20:38:44.822Z,12.75
2019-03-29T20:41:49.280Z,12.74
2019-03-29T20:44:54.182Z,12.69
2019-03-29T20:47:58.609Z,12.71
2019-03-29T20:51:03.140Z,12.74
2019-03-29T20:54:07.840Z,12.81
2019-03-29T20:57:12.548Z,12.84
2019-03-29T21:00:18.320Z,12.93
2019-03-29T21:03:22.786Z,12.91
2019-03-29T21:06:27.138Z,12.88
2019-03-29T21:09:31.455Z,12.89
2019-03-29T21:12:36.205Z,12.89
2019-03-29T21:15:41.016Z,12.86
2019-03-29T21:18:45.629Z,12.83
2019-03-29T21:21:50.052Z,12.85
2019-03-29T21:24:54.460Z,12.77
2019-03-29T21:27:58.878Z,12.74
2019-03-29T21:31:03.215Z,12.70
2019-03-29T21:34:07.593Z,12.68
2019-03-29T21:37:12.261Z,12.63
2019-03-29T21:40:17.099Z,12.60
2019-03-29T21:43:21.880Z,12.55
2019-03-29T21:46:26.552Z,12.48
2019-03-29T21:49:31.326Z,12.47
2019-03-29T21:52:36.122Z,12.42
2019-03-29T21:55:40.674Z,12.37
2019-03-29T21:58:45.100Z,12.34
2019-03-29T22:01:49.598Z,12.34
2019-03-29T22:04:54.370Z,12.29
2019-03-29T22:07:59.229Z,12.28
2019-03-29T22:11:03.621Z,12.25
2019-03-29T22:14:08.073Z,12.23
2019-03-29T22:17:12.467Z,12.19
2019-03-29T22:20:16.796Z,12.15
2019-03-29T22:23:21.338Z,12.11
2019-03-29T22:26:25.890Z,11.99
2019-03-29T22:29:30.519Z,11.96
2019-03-29T22:32:34.904Z,11.92
2019-03-29T22:35:39.737Z,11.87
2019-03-29T22:38:44.410Z,11.80
2019-03-29T22:41:48.830Z,11.83
2019-03-29T22:44:53.243Z,11.83
2019-03-29T22:47:57.676Z,11.88
2019-03-29T22:51:02.329Z,11.79
2019-03-29T22:54:06.722Z,11.65
2019-03-29T22:57:11.225Z,11.60
2019-03-29T23:00:20.889Z,11.55
2019-03-29T23:03:25.706Z,11.52
2019-03-29T23:06:30.571Z,11.49
2019-03-29T23:09:35.001Z,11.49
2019-03-29T23:12:39.341Z,11.44
2019-03-29T23:15:44.016Z,11.45
2019-03-29T23:18:48.766Z,11.41
2019-03-29T23:21:53.239Z,11.35
2019-03-29T23:24:59.645Z,11.37
2019-03-29T23:28:04.368Z,11.27
2019-03-29T23:31:08.874Z,11.29
2019-03-29T23:34:13.645Z,11.14
2019-03-29T23:37:18.545Z,11.11
2019-03-29T23:40:23.296Z,11.10
2019-03-29T23:43:27.904Z,11.11
2019-03-29T23:46:32.378Z,11.08
2019-03-29T23:49:37.515Z,11.05
2019-03-29T23:52:43.059Z,11.04
2019-03-29T23:55:47.894Z,11.01
2019-03-29T23:58:52.412Z,11.03
